sensor_id;sensor_type;location;lat;lon;timestamp;P1;durP1;ratioP1;P2;durP2;ratioP2
3155;SDS011;1588;50.892;7.082;2023-04-25T00:00:33;13.43;;;4.47;;
3155;SDS011;1588;50.892;7.082;2023-04-25T00:05:38;9.77;;;4.53;;
3155;SDS011;1588;50.892;7.082;2023-04-25T00:10:48;14.70;;;4.20;;
3155;SDS011;1588;50.892;7.082;2023-04-25T00:15:50;19.83;;;4.80;;
3155;SDS011;1588;50.892;7.082;2023-04-25T00:20:53;9.93;;;3.83;;
3155;SDS011;1588;50.892;7.082;2023-04-25T00:25:57;20.40;;;5.23;;
3155;SDS011;1588;50.892;7.082;2023-04-25T00:31:01;14.53;;;4.00;;
3155;SDS011;1588;50.892;7.082;2023-04-25T00:36:06;9.60;;;4.00;;
3155;SDS011;1588;50.892;7.082;2023-04-25T00:41:11;12.37;;;4.30;;
3155;SDS011;1588;50.892;7.082;2023-04-25T00:46:13;14.60;;;4.10;;
3155;SDS011;1588;50.892;7.082;2023-04-25T00:51:18;12.10;;;3.77;;
3155;SDS011;1588;50.892;7.082;2023-04-25T00:56:25;16.30;;;4.80;;
3155;SDS011;1588;50.892;7.082;2023-04-25T01:01:28;13.00;;;4.90;;
3155;SDS011;1588;50.892;7.082;2023-04-25T01:06:31;23.60;;;5.50;;
3155;SDS011;1588;50.892;7.082;2023-04-25T01:11:38;15.57;;;4.40;;
3155;SDS011;1588;50.892;7.082;2023-04-25T01:16:43;12.33;;;4.37;;
3155;SDS011;1588;50.892;7.082;2023-04-25T01:21:47;18.93;;;4.77;;
3155;SDS011;1588;50.892;7.082;2023-04-25T01:26:53;10.77;;;4.23;;
3155;SDS011;1588;50.892;7.082;2023-04-25T01:31:56;21.67;;;4.03;;
3155;SDS011;1588;50.892;7.082;2023-04-25T01:37:01;10.10;;;4.47;;
3155;SDS011;1588;50.892;7.082;2023-04-25T01:42:06;13.73;;;4.40;;
3155;SDS011;1588;50.892;7.082;2023-04-25T01:47:08;16.80;;;4.70;;
3155;SDS011;1588;50.892;7.082;2023-04-25T01:52:12;10.33;;;4.03;;
3155;SDS011;1588;50.892;7.082;2023-04-25T01:57:17;10.00;;;4.03;;
3155;SDS011;1588;50.892;7.082;2023-04-25T02:02:20;16.73;;;4.50;;
3155;SDS011;1588;50.892;7.082;2023-04-25T02:07:24;13.07;;;3.80;;
3155;SDS011;1588;50.892;7.082;2023-04-25T02:12:27;16.53;;;4.13;;
3155;SDS011;1588;50.892;7.082;2023-04-25T02:17:31;17.20;;;3.80;;
3155;SDS011;1588;50.892;7.082;2023-04-25T02:22:37;10.63;;;4.30;;
3155;SDS011;1588;50.892;7.082;2023-04-25T02:27:40;15.80;;;4.40;;
3155;SDS011;1588;50.892;7.082;2023-04-25T02:32:42;9.60;;;3.30;;
3155;SDS011;1588;50.892;7.082;2023-04-25T02:37:52;15.20;;;4.60;;
3155;SDS011;1588;50.892;7.082;2023-04-25T02:42:54;12.87;;;3.60;;
3155;SDS011;1588;50.892;7.082;2023-04-25T02:47:57;16.00;;;3.90;;
3155;SDS011;1588;50.892;7.082;2023-04-25T02:53:00;8.83;;;4.03;;
3155;SDS011;1588;50.892;7.082;2023-04-25T02:58:05;15.93;;;3.80;;
3155;SDS011;1588;50.892;7.082;2023-04-25T03:03:08;11.50;;;3.70;;
3155;SDS011;1588;50.892;7.082;2023-04-25T03:08:14;17.07;;;3.80;;
3155;SDS011;1588;50.892;7.082;2023-04-25T03:13:22;7.27;;;3.20;;
3155;SDS011;1588;50.892;7.082;2023-04-25T03:18:24;10.23;;;3.70;;
3155;SDS011;1588;50.892;7.082;2023-04-25T03:23:37;9.87;;;3.30;;
3155;SDS011;1588;50.892;7.082;2023-04-25T03:28:39;6.17;;;3.30;;
3155;SDS011;1588;50.892;7.082;2023-04-25T03:33:42;6.37;;;3.00;;
3155;SDS011;1588;50.892;7.082;2023-04-25T03:38:45;13.17;;;3.90;;
3155;SDS011;1588;50.892;7.082;2023-04-25T03:43:48;32.27;;;4.33;;
3155;SDS011;1588;50.892;7.082;2023-04-25T03:48:54;9.47;;;3.07;;
3155;SDS011;1588;50.892;7.082;2023-04-25T03:53:57;9.13;;;2.97;;
3155;SDS011;1588;50.892;7.082;2023-04-25T03:59:00;11.10;;;3.20;;
3155;SDS011;1588;50.892;7.082;2023-04-25T04:04:06;12.40;;;3.67;;
3155;SDS011;1588;50.892;7.082;2023-04-25T04:09:10;21.23;;;3.53;;
3155;SDS011;1588;50.892;7.082;2023-04-25T04:14:13;8.70;;;3.00;;
3155;SDS011;1588;50.892;7.082;2023-04-25T04:19:15;9.03;;;3.17;;
3155;SDS011;1588;50.892;7.082;2023-04-25T04:24:21;4.50;;;2.83;;
3155;SDS011;1588;50.892;7.082;2023-04-25T04:29:24;10.10;;;3.90;;
3155;SDS011;1588;50.892;7.082;2023-04-25T04:34:28;7.03;;;3.37;;
3155;SDS011;1588;50.892;7.082;2023-04-25T04:39:33;13.97;;;4.30;;
3155;SDS011;1588;50.892;7.082;2023-04-25T04:44:35;12.93;;;4.30;;
3155;SDS011;1588;50.892;7.082;2023-04-25T04:49:39;16.23;;;4.50;;
3155;SDS011;1588;50.892;7.082;2023-04-25T04:54:44;15.20;;;4.87;;
3155;SDS011;1588;50.892;7.082;2023-04-25T04:59:46;11.63;;;4.53;;
3155;SDS011;1588;50.892;7.082;2023-04-25T05:04:49;20.43;;;4.93;;
3155;SDS011;1588;50.892;7.082;2023-04-25T05:09:55;24.07;;;6.10;;
3155;SDS011;1588;50.892;7.082;2023-04-25T05:14:58;13.50;;;4.17;;
3155;SDS011;1588;50.892;7.082;2023-04-25T05:20:00;9.73;;;4.73;;
3155;SDS011;1588;50.892;7.082;2023-04-25T05:25:07;14.60;;;4.77;;
3155;SDS011;1588;50.892;7.082;2023-04-25T05:30:13;16.83;;;4.93;;
3155;SDS011;1588;50.892;7.082;2023-04-25T05:35:16;15.47;;;5.37;;
3155;SDS011;1588;50.892;7.082;2023-04-25T05:40:20;20.43;;;4.23;;
3155;SDS011;1588;50.892;7.082;2023-04-25T05:45:22;27.00;;;6.07;;
3155;SDS011;1588;50.892;7.082;2023-04-25T05:50:25;12.03;;;3.90;;
3155;SDS011;1588;50.892;7.082;2023-04-25T05:55:29;12.93;;;4.83;;
3155;SDS011;1588;50.892;7.082;2023-04-25T06:00:33;17.90;;;5.00;;
3155;SDS011;1588;50.892;7.082;2023-04-25T06:05:36;18.03;;;4.33;;
3155;SDS011;1588;50.892;7.082;2023-04-25T06:10:40;19.73;;;4.40;;
3155;SDS011;1588;50.892;7.082;2023-04-25T06:15:43;30.43;;;5.60;;
3155;SDS011;1588;50.892;7.082;2023-04-25T06:20:45;12.67;;;5.00;;
3155;SDS011;1588;50.892;7.082;2023-04-25T06:25:49;15.03;;;4.73;;
3155;SDS011;1588;50.892;7.082;2023-04-25T06:30:52;18.60;;;5.20;;
3155;SDS011;1588;50.892;7.082;2023-04-25T06:35:56;17.03;;;4.80;;
3155;SDS011;1588;50.892;7.082;2023-04-25T06:41:00;12.07;;;4.70;;
3155;SDS011;1588;50.892;7.082;2023-04-25T06:46:03;20.13;;;4.67;;
3155;SDS011;1588;50.892;7.082;2023-04-25T06:51:05;18.43;;;5.20;;
3155;SDS011;1588;50.892;7.082;2023-04-25T06:56:09;15.77;;;4.57;;
3155;SDS011;1588;50.892;7.082;2023-04-25T07:01:12;18.03;;;6.00;;
3155;SDS011;1588;50.892;7.082;2023-04-25T07:06:15;17.93;;;4.50;;
3155;SDS011;1588;50.892;7.082;2023-04-25T07:11:18;10.20;;;3.13;;
3155;SDS011;1588;50.892;7.082;2023-04-25T07:16:21;12.10;;;3.37;;
3155;SDS011;1588;50.892;7.082;2023-04-25T07:21:23;15.53;;;3.40;;
3155;SDS011;1588;50.892;7.082;2023-04-25T07:26:27;14.93;;;3.50;;
3155;SDS011;1588;50.892;7.082;2023-04-25T07:31:30;8.43;;;2.77;;
3155;SDS011;1588;50.892;7.082;2023-04-25T07:36:33;18.50;;;4.73;;
3155;SDS011;1588;50.892;7.082;2023-04-25T07:41:37;9.80;;;4.03;;
3155;SDS011;1588;50.892;7.082;2023-04-25T07:46:40;16.63;;;3.10;;
3155;SDS011;1588;50.892;7.082;2023-04-25T07:51:42;24.77;;;3.33;;
3155;SDS011;1588;50.892;7.082;2023-04-25T07:56:46;15.63;;;3.27;;
3155;SDS011;1588;50.892;7.082;2023-04-25T08:01:49;11.47;;;3.33;;
3155;SDS011;1588;50.892;7.082;2023-04-25T08:06:51;12.03;;;2.70;;
3155;SDS011;1588;50.892;7.082;2023-04-25T08:11:57;17.60;;;3.40;;
3155;SDS011;1588;50.892;7.082;2023-04-25T08:17:01;13.70;;;4.43;;
3155;SDS011;1588;50.892;7.082;2023-04-25T08:22:05;9.10;;;3.80;;
3155;SDS011;1588;50.892;7.082;2023-04-25T08:27:09;14.13;;;4.20;;
3155;SDS011;1588;50.892;7.082;2023-04-25T08:32:13;11.50;;;3.90;;
3155;SDS011;1588;50.892;7.082;2023-04-25T08:37:19;4.13;;;2.40;;
3155;SDS011;1588;50.892;7.082;2023-04-25T08:42:51;4.27;;;2.60;;
3155;SDS011;1588;50.892;7.082;2023-04-25T08:47:55;11.10;;;2.87;;
3155;SDS011;1588;50.892;7.082;2023-04-25T08:53:04;3.93;;;2.23;;
3155;SDS011;1588;50.892;7.082;2023-04-25T08:58:22;10.00;;;3.60;;
3155;SDS011;1588;50.892;7.082;2023-04-25T09:03:25;8.50;;;2.50;;
3155;SDS011;1588;50.892;7.082;2023-04-25T09:08:31;6.93;;;2.60;;
3155;SDS011;1588;50.892;7.082;2023-04-25T09:13:35;10.37;;;2.83;;
3155;SDS011;1588;50.892;7.082;2023-04-25T09:18:37;12.23;;;2.40;;
3155;SDS011;1588;50.892;7.082;2023-04-25T09:23:40;5.97;;;2.57;;
3155;SDS011;1588;50.892;7.082;2023-04-25T09:28:46;10.63;;;2.93;;
3155;SDS011;1588;50.892;7.082;2023-04-25T09:33:49;18.80;;;3.27;;
3155;SDS011;1588;50.892;7.082;2023-04-25T09:38:51;11.13;;;4.07;;
3155;SDS011;1588;50.892;7.082;2023-04-25T09:43:57;10.83;;;3.20;;
3155;SDS011;1588;50.892;7.082;2023-04-25T09:49:00;16.93;;;3.70;;
3155;SDS011;1588;50.892;7.082;2023-04-25T09:54:09;8.50;;;2.70;;
3155;SDS011;1588;50.892;7.082;2023-04-25T09:59:12;8.83;;;2.90;;
3155;SDS011;1588;50.892;7.082;2023-04-25T10:04:18;13.37;;;2.90;;
3155;SDS011;1588;50.892;7.082;2023-04-25T10:09:25;10.07;;;3.10;;
3155;SDS011;1588;50.892;7.082;2023-04-25T10:14:31;7.30;;;2.67;;
3155;SDS011;1588;50.892;7.082;2023-04-25T10:19:34;7.87;;;2.10;;
3155;SDS011;1588;50.892;7.082;2023-04-25T10:24:37;10.40;;;2.83;;
3155;SDS011;1588;50.892;7.082;2023-04-25T10:29:41;4.07;;;2.10;;
3155;SDS011;1588;50.892;7.082;2023-04-25T10:34:47;8.70;;;2.80;;
3155;SDS011;1588;50.892;7.082;2023-04-25T10:39:50;8.77;;;3.30;;
3155;SDS011;1588;50.892;7.082;2023-04-25T10:45:04;7.97;;;2.40;;
3155;SDS011;1588;50.892;7.082;2023-04-25T10:50:14;21.57;;;3.50;;
3155;SDS011;1588;50.892;7.082;2023-04-25T10:55:49;8.43;;;2.27;;
3155;SDS011;1588;50.892;7.082;2023-04-25T11:00:53;14.43;;;2.13;;
3155;SDS011;1588;50.892;7.082;2023-04-25T11:05:57;13.30;;;2.30;;
3155;SDS011;1588;50.892;7.082;2023-04-25T11:11:01;6.47;;;2.53;;
3155;SDS011;1588;50.892;7.082;2023-04-25T11:16:08;5.83;;;2.27;;
3155;SDS011;1588;50.892;7.082;2023-04-25T11:21:11;12.73;;;2.43;;
3155;SDS011;1588;50.892;7.082;2023-04-25T11:26:15;10.93;;;1.83;;
3155;SDS011;1588;50.892;7.082;2023-04-25T11:31:21;6.30;;;2.43;;
3155;SDS011;1588;50.892;7.082;2023-04-25T11:36:23;10.13;;;2.47;;
3155;SDS011;1588;50.892;7.082;2023-04-25T11:41:26;4.63;;;2.60;;
3155;SDS011;1588;50.892;7.082;2023-04-25T11:46:30;4.40;;;2.30;;
3155;SDS011;1588;50.892;7.082;2023-04-25T11:51:37;8.33;;;2.40;;
3155;SDS011;1588;50.892;7.082;2023-04-25T11:56:41;6.53;;;2.30;;
3155;SDS011;1588;50.892;7.082;2023-04-25T12:02:01;13.60;;;2.20;;
3155;SDS011;1588;50.892;7.082;2023-04-25T12:07:03;7.53;;;2.10;;
3155;SDS011;1588;50.892;7.082;2023-04-25T12:12:06;9.30;;;1.90;;
3155;SDS011;1588;50.892;7.082;2023-04-25T12:17:13;8.60;;;1.90;;
3155;SDS011;1588;50.892;7.082;2023-04-25T12:22:19;3.07;;;1.57;;
3155;SDS011;1588;50.892;7.082;2023-04-25T12:27:23;3.57;;;1.73;;
3155;SDS011;1588;50.892;7.082;2023-04-25T12:32:29;4.03;;;1.93;;
3155;SDS011;1588;50.892;7.082;2023-04-25T12:37:32;3.70;;;1.57;;
3155;SDS011;1588;50.892;7.082;2023-04-25T12:42:38;5.40;;;1.57;;
3155;SDS011;1588;50.892;7.082;2023-04-25T12:47:42;9.10;;;2.40;;
3155;SDS011;1588;50.892;7.082;2023-04-25T12:52:45;3.33;;;1.27;;
3155;SDS011;1588;50.892;7.082;2023-04-25T12:57:47;3.63;;;1.50;;
3155;SDS011;1588;50.892;7.082;2023-04-25T13:02:54;4.40;;;1.53;;
3155;SDS011;1588;50.892;7.082;2023-04-25T13:07:56;3.90;;;1.80;;
3155;SDS011;1588;50.892;7.082;2023-04-25T13:13:00;8.83;;;1.90;;
3155;SDS011;1588;50.892;7.082;2023-04-25T13:18:04;9.50;;;2.07;;
3155;SDS011;1588;50.892;7.082;2023-04-25T13:23:07;4.63;;;1.50;;
3155;SDS011;1588;50.892;7.082;2023-04-25T13:28:10;1.97;;;1.30;;
3155;SDS011;1588;50.892;7.082;2023-04-25T13:33:14;3.10;;;1.50;;
3155;SDS011;1588;50.892;7.082;2023-04-25T13:38:17;7.20;;;1.73;;
3155;SDS011;1588;50.892;7.082;2023-04-25T13:43:20;10.87;;;1.67;;
3155;SDS011;1588;50.892;7.082;2023-04-25T13:48:24;11.90;;;1.77;;
3155;SDS011;1588;50.892;7.082;2023-04-25T13:53:28;19.23;;;1.53;;
3155;SDS011;1588;50.892;7.082;2023-04-25T13:58:30;3.27;;;1.70;;
3155;SDS011;1588;50.892;7.082;2023-04-25T14:03:34;4.33;;;1.43;;
3155;SDS011;1588;50.892;7.082;2023-04-25T14:08:37;3.00;;;1.47;;
3155;SDS011;1588;50.892;7.082;2023-04-25T14:13:40;2.77;;;1.50;;
3155;SDS011;1588;50.892;7.082;2023-04-25T14:18:43;5.80;;;1.53;;
3155;SDS011;1588;50.892;7.082;2023-04-25T14:23:46;3.63;;;1.30;;
3155;SDS011;1588;50.892;7.082;2023-04-25T14:28:50;3.90;;;1.60;;
3155;SDS011;1588;50.892;7.082;2023-04-25T14:33:55;9.67;;;2.40;;
3155;SDS011;1588;50.892;7.082;2023-04-25T14:38:58;5.07;;;2.40;;
3155;SDS011;1588;50.892;7.082;2023-04-25T14:44:01;7.70;;;2.20;;
3155;SDS011;1588;50.892;7.082;2023-04-25T14:49:04;4.53;;;1.97;;
3155;SDS011;1588;50.892;7.082;2023-04-25T14:54:08;6.13;;;1.97;;
3155;SDS011;1588;50.892;7.082;2023-04-25T14:59:11;2.90;;;1.83;;
3155;SDS011;1588;50.892;7.082;2023-04-25T15:04:15;6.87;;;1.57;;
3155;SDS011;1588;50.892;7.082;2023-04-25T15:09:18;1.33;;;1.00;;
3155;SDS011;1588;50.892;7.082;2023-04-25T15:14:20;2.43;;;1.17;;
3155;SDS011;1588;50.892;7.082;2023-04-25T15:19:24;4.20;;;1.17;;
3155;SDS011;1588;50.892;7.082;2023-04-25T15:24:27;7.70;;;1.43;;
3155;SDS011;1588;50.892;7.082;2023-04-25T15:29:30;3.63;;;1.97;;
3155;SDS011;1588;50.892;7.082;2023-04-25T15:35:07;4.60;;;1.70;;
3155;SDS011;1588;50.892;7.082;2023-04-25T15:40:15;3.33;;;1.73;;
3155;SDS011;1588;50.892;7.082;2023-04-25T15:45:44;12.00;;;2.10;;
3155;SDS011;1588;50.892;7.082;2023-04-25T15:50:48;2.87;;;1.40;;
3155;SDS011;1588;50.892;7.082;2023-04-25T15:55:51;3.97;;;1.47;;
3155;SDS011;1588;50.892;7.082;2023-04-25T16:00:53;6.10;;;1.47;;
3155;SDS011;1588;50.892;7.082;2023-04-25T16:05:58;2.43;;;1.50;;
3155;SDS011;1588;50.892;7.082;2023-04-25T16:11:00;4.27;;;1.90;;
3155;SDS011;1588;50.892;7.082;2023-04-25T16:16:04;4.37;;;1.57;;
3155;SDS011;1588;50.892;7.082;2023-04-25T16:21:13;8.33;;;1.50;;
3155;SDS011;1588;50.892;7.082;2023-04-25T16:26:16;5.27;;;1.53;;
3155;SDS011;1588;50.892;7.082;2023-04-25T16:31:19;10.53;;;1.67;;
3155;SDS011;1588;50.892;7.082;2023-04-25T16:36:23;1.77;;;1.37;;
3155;SDS011;1588;50.892;7.082;2023-04-25T16:41:28;5.10;;;1.43;;
3155;SDS011;1588;50.892;7.082;2023-04-25T16:46:34;3.40;;;1.50;;
3155;SDS011;1588;50.892;7.082;2023-04-25T16:51:46;5.03;;;1.30;;
3155;SDS011;1588;50.892;7.082;2023-04-25T16:56:51;7.87;;;1.53;;
3155;SDS011;1588;50.892;7.082;2023-04-25T17:02:01;3.00;;;1.93;;
3155;SDS011;1588;50.892;7.082;2023-04-25T17:07:14;4.00;;;1.77;;
3155;SDS011;1588;50.892;7.082;2023-04-25T17:12:19;3.90;;;1.93;;
3155;SDS011;1588;50.892;7.082;2023-04-25T17:17:22;9.67;;;2.00;;
3155;SDS011;1588;50.892;7.082;2023-04-25T17:22:33;4.40;;;2.03;;
3155;SDS011;1588;50.892;7.082;2023-04-25T17:27:55;4.20;;;1.87;;
3155;SDS011;1588;50.892;7.082;2023-04-25T17:33:01;3.10;;;1.43;;
3155;SDS011;1588;50.892;7.082;2023-04-25T17:43:51;3.33;;;1.70;;
3155;SDS011;1588;50.892;7.082;2023-04-25T17:48:57;5.53;;;1.47;;
3155;SDS011;1588;50.892;7.082;2023-04-25T17:54:01;7.00;;;1.90;;
3155;SDS011;1588;50.892;7.082;2023-04-25T17:59:12;5.43;;;1.23;;
3155;SDS011;1588;50.892;7.082;2023-04-25T18:04:17;18.27;;;1.83;;
3155;SDS011;1588;50.892;7.082;2023-04-25T18:09:31;1.43;;;1.33;;
3155;SDS011;1588;50.892;7.082;2023-04-25T18:14:41;3.60;;;2.00;;
3155;SDS011;1588;50.892;7.082;2023-04-25T18:19:53;2.60;;;1.40;;
3155;SDS011;1588;50.892;7.082;2023-04-25T18:30:22;6.90;;;2.10;;
3155;SDS011;1588;50.892;7.082;2023-04-25T18:35:33;3.30;;;1.50;;
3155;SDS011;1588;50.892;7.082;2023-04-25T18:40:48;8.27;;;1.70;;
3155;SDS011;1588;50.892;7.082;2023-04-25T18:45:55;5.23;;;1.23;;
3155;SDS011;1588;50.892;7.082;2023-04-25T18:50:58;5.07;;;1.50;;
3155;SDS011;1588;50.892;7.082;2023-04-25T18:56:08;4.40;;;1.53;;
3155;SDS011;1588;50.892;7.082;2023-04-25T19:01:17;11.53;;;1.90;;
3155;SDS011;1588;50.892;7.082;2023-04-25T19:06:28;6.83;;;2.20;;
3155;SDS011;1588;50.892;7.082;2023-04-25T19:12:01;7.23;;;2.30;;
3155;SDS011;1588;50.892;7.082;2023-04-25T19:17:08;5.20;;;1.80;;
3155;SDS011;1588;50.892;7.082;2023-04-25T19:22:36;3.67;;;1.87;;
3155;SDS011;1588;50.892;7.082;2023-04-25T19:27:50;4.80;;;1.60;;
3155;SDS011;1588;50.892;7.082;2023-04-25T19:32:57;2.40;;;1.87;;
3155;SDS011;1588;50.892;7.082;2023-04-25T19:37:59;2.70;;;1.90;;
3155;SDS011;1588;50.892;7.082;2023-04-25T19:43:21;6.43;;;2.13;;
3155;SDS011;1588;50.892;7.082;2023-04-25T19:48:36;3.63;;;2.43;;
3155;SDS011;1588;50.892;7.082;2023-04-25T19:53:44;8.97;;;2.27;;
3155;SDS011;1588;50.892;7.082;2023-04-25T19:58:54;7.97;;;1.90;;
3155;SDS011;1588;50.892;7.082;2023-04-25T20:04:02;3.73;;;1.90;;
3155;SDS011;1588;50.892;7.082;2023-04-25T20:09:12;3.93;;;2.00;;
3155;SDS011;1588;50.892;7.082;2023-04-25T20:14:31;7.20;;;1.77;;
3155;SDS011;1588;50.892;7.082;2023-04-25T20:19:39;8.53;;;1.90;;
3155;SDS011;1588;50.892;7.082;2023-04-25T20:24:42;6.60;;;2.40;;
3155;SDS011;1588;50.892;7.082;2023-04-25T20:29:45;6.43;;;2.60;;
3155;SDS011;1588;50.892;7.082;2023-04-25T20:34:48;9.27;;;2.23;;
3155;SDS011;1588;50.892;7.082;2023-04-25T20:39:51;3.73;;;2.43;;
3155;SDS011;1588;50.892;7.082;2023-04-25T20:44:53;5.70;;;2.70;;
3155;SDS011;1588;50.892;7.082;2023-04-25T20:49:58;4.17;;;2.30;;
3155;SDS011;1588;50.892;7.082;2023-04-25T20:55:04;5.83;;;2.63;;
3155;SDS011;1588;50.892;7.082;2023-04-25T21:00:08;5.53;;;2.20;;
3155;SDS011;1588;50.892;7.082;2023-04-25T21:05:18;6.13;;;2.60;;
3155;SDS011;1588;50.892;7.082;2023-04-25T21:10:21;4.20;;;2.30;;
3155;SDS011;1588;50.892;7.082;2023-04-25T21:15:24;3.17;;;2.37;;
3155;SDS011;1588;50.892;7.082;2023-04-25T21:20:28;3.67;;;2.40;;
3155;SDS011;1588;50.892;7.082;2023-04-25T21:25:31;11.07;;;2.80;;
3155;SDS011;1588;50.892;7.082;2023-04-25T21:30:33;11.13;;;2.47;;
3155;SDS011;1588;50.892;7.082;2023-04-25T21:35:37;10.10;;;3.00;;
3155;SDS011;1588;50.892;7.082;2023-04-25T21:40:39;12.03;;;2.70;;
3155;SDS011;1588;50.892;7.082;2023-04-25T21:45:42;4.47;;;2.73;;
3155;SDS011;1588;50.892;7.082;2023-04-25T21:50:55;7.90;;;2.47;;
3155;SDS011;1588;50.892;7.082;2023-04-25T21:55:57;10.80;;;3.63;;
3155;SDS011;1588;50.892;7.082;2023-04-25T22:01:00;11.17;;;2.60;;
3155;SDS011;1588;50.892;7.082;2023-04-25T22:06:04;10.13;;;3.00;;
3155;SDS011;1588;50.892;7.082;2023-04-25T22:11:06;10.10;;;2.50;;
3155;SDS011;1588;50.892;7.082;2023-04-25T22:16:09;11.57;;;3.40;;
3155;SDS011;1588;50.892;7.082;2023-04-25T22:21:13;5.00;;;2.77;;
3155;SDS011;1588;50.892;7.082;2023-04-25T22:26:15;6.70;;;3.70;;
3155;SDS011;1588;50.892;7.082;2023-04-25T22:31:17;6.87;;;3.67;;
3155;SDS011;1588;50.892;7.082;2023-04-25T22:36:27;12.30;;;3.67;;
3155;SDS011;1588;50.892;7.082;2023-04-25T22:41:30;6.20;;;3.60;;
3155;SDS011;1588;50.892;7.082;2023-04-25T22:46:32;8.83;;;3.50;;
3155;SDS011;1588;50.892;7.082;2023-04-25T22:51:36;13.73;;;3.50;;
3155;SDS011;1588;50.892;7.082;2023-04-25T22:56:41;6.47;;;2.70;;
3155;SDS011;1588;50.892;7.082;2023-04-25T23:01:44;4.17;;;2.43;;
3155;SDS011;1588;50.892;7.082;2023-04-25T23:06:49;13.70;;;2.50;;
3155;SDS011;1588;50.892;7.082;2023-04-25T23:11:51;7.93;;;3.60;;
3155;SDS011;1588;50.892;7.082;2023-04-25T23:16:54;10.17;;;2.37;;
3155;SDS011;1588;50.892;7.082;2023-04-25T23:21:57;7.60;;;2.80;;
3155;SDS011;1588;50.892;7.082;2023-04-25T23:27:00;3.50;;;2.40;;
3155;SDS011;1588;50.892;7.082;2023-04-25T23:32:03;6.63;;;2.20;;
3155;SDS011;1588;50.892;7.082;2023-04-25T23:37:07;11.03;;;3.03;;
3155;SDS011;1588;50.892;7.082;2023-04-25T23:42:12;3.60;;;2.00;;
3155;SDS011;1588;50.892;7.082;2023-04-25T23:47:14;7.43;;;2.00;;
3155;SDS011;1588;50.892;7.082;2023-04-25T23:52:19;8.30;;;1.97;;
3155;SDS011;1588;50.892;7.082;2023-04-25T23:57:23;6.60;;;1.93;;
